createdAt,value
2023-02-18T00:01:18.827Z,47.57
2023-02-18T00:03:46.875Z,47.87
2023-02-18T00:06:15.936Z,47.99
2023-02-18T00:08:45.110Z,47.66
2023-02-18T00:11:13.845Z,47.61
2023-02-18T00:13:43.439Z,48.18
2023-02-18T00:16:13.087Z,47.72
2023-02-18T00:18:41.038Z,47.87
2023-02-18T00:21:09.641Z,48.04
2023-02-18T00:23:37.820Z,47.96
2023-02-18T00:26:08.644Z,48.18
2023-02-18T00:28:37.643Z,47.80
2023-02-18T00:31:11.644Z,48.37
2023-02-18T00:33:40.196Z,48.25
2023-02-18T00:36:10.362Z,48.09
2023-02-18T00:38:38.676Z,48.07
2023-02-18T00:41:07.103Z,47.72
2023-02-18T00:43:35.232Z,48.08
2023-02-18T00:46:03.394Z,48.22
2023-02-18T00:48:34.007Z,48.25
2023-02-18T00:51:02.503Z,47.77
2023-02-18T00:53:31.026Z,48.35
2023-02-18T00:56:00.601Z,47.98
2023-02-18T00:58:28.695Z,47.91
2023-02-18T01:00:57.567Z,48.10
2023-02-18T01:03:25.749Z,48.47
2023-02-18T01:05:55.259Z,48.51
2023-02-18T01:08:28.671Z,48.67
2023-02-18T01:10:59.658Z,48.34
2023-02-18T01:13:30.210Z,48.04
2023-02-18T01:15:58.309Z,48.44
2023-02-18T01:18:26.688Z,48.41
2023-02-18T01:20:56.014Z,48.39
2023-02-18T01:23:24.562Z,48.14
2023-02-18T01:25:52.736Z,48.20
2023-02-18T01:28:21.437Z,48.59
2023-02-18T01:30:51.320Z,48.06
2023-02-18T01:33:19.834Z,48.32
2023-02-18T01:35:48.285Z,48.52
2023-02-18T01:38:17.984Z,48.15
2023-02-18T01:40:48.791Z,48.17
2023-02-18T01:43:17.288Z,48.07
2023-02-18T01:45:58.828Z,48.26
2023-02-18T01:48:32.398Z,48.46
2023-02-18T01:51:05.463Z,48.45
2023-02-18T01:53:39.098Z,48.61
2023-02-18T01:56:12.538Z,48.67
2023-02-18T01:58:40.904Z,48.41
2023-02-18T02:01:12.415Z,48.43
2023-02-18T02:03:40.470Z,48.30
2023-02-18T02:06:15.795Z,48.41
2023-02-18T02:08:46.870Z,48.77
2023-02-18T02:11:25.740Z,48.46
2023-02-18T02:14:17.748Z,48.61
2023-02-18T02:16:51.691Z,48.63
2023-02-18T02:19:56.644Z,48.89
2023-02-18T02:22:59.046Z,48.85
2023-02-18T02:25:48.139Z,49.07
2023-02-18T02:28:52.310Z,49.54
2023-02-18T02:31:48.007Z,49.28
2023-02-18T02:34:40.467Z,49.53
2023-02-18T02:37:17.802Z,49.20
2023-02-18T02:39:58.797Z,49.48
2023-02-18T02:42:44.660Z,49.68
2023-02-18T02:45:25.121Z,49.26
2023-02-18T02:48:00.958Z,49.77
2023-02-18T02:50:38.805Z,50.32
2023-02-18T02:53:17.892Z,49.74
2023-02-18T02:55:46.382Z,49.27
2023-02-18T02:58:17.511Z,49.72
2023-02-18T03:00:59.865Z,49.97
2023-02-18T03:03:44.966Z,49.96
2023-02-18T03:06:50.123Z,50.15
2023-02-18T03:09:22.886Z,49.87
2023-02-18T03:12:01.432Z,49.91
2023-02-18T03:14:42.263Z,49.89
2023-02-18T03:17:17.366Z,49.92
2023-02-18T03:19:50.898Z,49.83
2023-02-18T03:22:26.786Z,49.93
2023-02-18T03:24:58.618Z,50.11
2023-02-18T03:27:29.951Z,49.61
2023-02-18T03:30:03.159Z,50.00
2023-02-18T03:32:35.275Z,49.74
2023-02-18T03:35:09.286Z,49.86
2023-02-18T03:37:41.393Z,50.27
2023-02-18T03:40:11.371Z,49.87
2023-02-18T03:42:39.289Z,49.67
2023-02-18T03:45:08.478Z,49.74
2023-02-18T03:47:36.712Z,50.29
2023-02-18T03:50:05.119Z,49.80
2023-02-18T03:52:33.062Z,49.92
2023-02-18T03:55:02.366Z,50.12
2023-02-18T03:57:31.491Z,49.92
2023-02-18T03:59:59.308Z,49.99
2023-02-18T04:02:27.166Z,50.15
2023-02-18T04:04:55.028Z,50.28
2023-02-18T04:07:23.039Z,50.50
2023-02-18T04:09:51.026Z,50.64
2023-02-18T04:12:20.131Z,50.42
2023-02-18T04:14:47.990Z,50.62
2023-02-18T04:17:15.785Z,50.45
2023-02-18T04:19:43.883Z,50.42
2023-02-18T04:22:11.685Z,50.36
2023-02-18T04:24:39.462Z,50.42
2023-02-18T04:27:07.265Z,50.69
2023-02-18T04:29:36.665Z,50.86
2023-02-18T04:32:04.699Z,50.31
2023-02-18T04:34:32.512Z,50.75
2023-02-18T04:37:00.325Z,50.78
2023-02-18T04:39:28.133Z,50.93
2023-02-18T04:41:55.878Z,50.82
2023-02-18T04:44:23.630Z,50.58
2023-02-18T04:46:52.728Z,51.19
2023-02-18T04:49:20.441Z,50.62
2023-02-18T04:51:48.534Z,50.75
2023-02-18T04:54:16.248Z,50.93
2023-02-18T04:56:44.037Z,50.81
2023-02-18T04:59:12.568Z,50.55
2023-02-18T05:01:40.309Z,51.05
2023-02-18T05:04:09.628Z,50.80
2023-02-18T05:06:39.455Z,50.66
2023-02-18T05:09:07.369Z,50.72
2023-02-18T05:11:35.060Z,50.53
2023-02-18T05:14:02.949Z,50.67
2023-02-18T05:16:31.513Z,51.14
2023-02-18T05:18:59.257Z,51.21
2023-02-18T05:21:28.354Z,50.89
2023-02-18T05:23:56.087Z,51.17
2023-02-18T05:26:23.905Z,50.77
2023-02-18T05:28:51.821Z,50.75
2023-02-18T05:31:19.618Z,51.18
2023-02-18T05:33:47.344Z,51.13
2023-02-18T05:36:15.182Z,50.72
2023-02-18T05:38:44.242Z,50.74
2023-02-18T05:41:11.959Z,50.84
2023-02-18T05:43:53.627Z,51.09
2023-02-18T05:46:21.475Z,50.88
2023-02-18T05:48:49.597Z,51.13
2023-02-18T05:51:17.528Z,51.17
2023-02-18T05:53:46.590Z,51.09
2023-02-18T05:56:14.418Z,50.87
2023-02-18T05:58:42.246Z,51.50
2023-02-18T06:01:10.056Z,51.50
2023-02-18T06:03:37.734Z,51.49
2023-02-18T06:06:06.502Z,51.09
2023-02-18T06:08:34.365Z,51.64
2023-02-18T06:11:03.790Z,51.57
2023-02-18T06:13:31.686Z,51.59
2023-02-18T06:15:59.522Z,51.75
2023-02-18T06:18:27.387Z,51.65
2023-02-18T06:20:55.640Z,51.35
2023-02-18T06:23:23.387Z,51.48
2023-02-18T06:25:51.367Z,51.22
2023-02-18T06:28:20.456Z,51.79
2023-02-18T06:30:48.281Z,51.37
2023-02-18T06:33:16.198Z,51.51
2023-02-18T06:35:44.180Z,51.63
2023-02-18T06:38:11.892Z,51.32
2023-02-18T06:40:39.631Z,51.62
2023-02-18T06:43:07.338Z,51.67
2023-02-18T06:45:36.517Z,51.28
2023-02-18T06:48:04.233Z,51.05
2023-02-18T06:50:31.968Z,51.23
2023-02-18T06:53:00.149Z,51.14
2023-02-18T06:55:27.926Z,51.41
2023-02-18T06:57:55.649Z,51.05
2023-02-18T07:00:23.787Z,51.35
2023-02-18T07:02:52.886Z,51.02
2023-02-18T07:05:20.792Z,51.02
2023-02-18T07:07:48.542Z,51.03
2023-02-18T07:10:16.421Z,50.77
2023-02-18T07:12:44.215Z,50.90
2023-02-18T07:15:12.599Z,50.74
2023-02-18T07:17:40.335Z,50.96
2023-02-18T07:20:10.618Z,50.80
2023-02-18T07:22:38.345Z,50.61
2023-02-18T07:25:06.582Z,50.71
2023-02-18T07:27:34.539Z,50.54
2023-02-18T07:30:02.311Z,50.67
2023-02-18T07:32:30.166Z,50.65
2023-02-18T07:34:57.947Z,50.72
2023-02-18T07:37:27.206Z,50.23
2023-02-18T07:39:54.932Z,50.51
2023-02-18T07:42:22.766Z,50.70
2023-02-18T07:44:51.028Z,50.63
2023-02-18T07:47:19.878Z,50.82
2023-02-18T07:49:47.733Z,51.00
2023-02-18T07:52:16.367Z,50.30
2023-02-18T07:54:45.495Z,50.22
2023-02-18T07:57:13.287Z,50.10
2023-02-18T07:59:41.295Z,50.12
2023-02-18T08:02:16.390Z,50.50
2023-02-18T08:04:44.272Z,50.08
2023-02-18T08:07:14.716Z,50.15
2023-02-18T08:09:42.647Z,49.80
2023-02-18T08:12:11.768Z,49.98
2023-02-18T08:14:40.273Z,49.76
2023-02-18T08:17:08.041Z,49.84
2023-02-18T08:19:35.845Z,49.97
2023-02-18T08:22:03.956Z,49.84
2023-02-18T08:24:31.821Z,49.41
2023-02-18T08:27:01.534Z,49.86
2023-02-18T08:29:31.223Z,49.75
2023-02-18T08:31:59.524Z,49.46
2023-02-18T08:34:43.067Z,49.47
2023-02-18T08:37:10.970Z,49.42
2023-02-18T08:39:40.139Z,50.01
2023-02-18T08:42:08.177Z,49.50
2023-02-18T08:44:36.011Z,49.65
2023-02-18T08:47:03.883Z,49.50
2023-02-18T08:49:53.902Z,49.65
2023-02-18T08:52:21.992Z,49.74
2023-02-18T08:54:49.904Z,49.77
2023-02-18T08:57:17.732Z,49.57
2023-02-18T08:59:45.824Z,49.90
2023-02-18T09:02:15.266Z,49.59
2023-02-18T09:04:43.103Z,49.57
2023-02-18T09:07:12.291Z,49.49
2023-02-18T09:09:40.068Z,49.66
2023-02-18T09:12:08.472Z,49.54
2023-02-18T09:14:36.278Z,49.75
2023-02-18T09:17:04.196Z,49.60
2023-02-18T09:19:32.024Z,49.38
2023-02-18T09:22:00.800Z,49.08
2023-02-18T09:24:30.216Z,49.14
2023-02-18T09:26:58.026Z,49.33
2023-02-18T09:29:25.877Z,49.16
2023-02-18T09:31:53.880Z,48.81
2023-02-18T09:34:21.969Z,49.12
2023-02-18T09:36:49.764Z,49.25
2023-02-18T09:39:18.109Z,49.09
2023-02-18T09:41:49.662Z,48.92
2023-02-18T09:44:22.397Z,48.56
2023-02-18T09:46:53.564Z,48.59
2023-02-18T09:49:26.210Z,48.83
2023-02-18T09:51:55.120Z,48.93
2023-02-18T09:54:23.456Z,48.89
2023-02-18T09:56:54.840Z,48.93
2023-02-18T09:59:25.952Z,48.68
2023-02-18T10:01:55.423Z,48.80
2023-02-18T10:04:30.068Z,48.34
2023-02-18T10:06:59.114Z,48.56
2023-02-18T10:09:31.016Z,48.29
2023-02-18T10:12:09.373Z,48.57
2023-02-18T10:14:37.593Z,48.48
2023-02-18T10:17:06.202Z,48.29
2023-02-18T10:19:37.548Z,48.45
2023-02-18T10:22:07.771Z,48.79
2023-02-18T10:24:39.442Z,48.58
2023-02-18T10:27:10.267Z,48.27
2023-02-18T10:29:38.095Z,48.59
2023-02-18T10:32:15.264Z,48.23
2023-02-18T10:34:47.051Z,48.24
2023-02-18T10:37:32.719Z,48.66
2023-02-18T10:40:09.962Z,48.54
2023-02-18T10:42:48.773Z,48.77
2023-02-18T10:45:26.051Z,48.73
2023-02-18T10:48:06.233Z,49.03
2023-02-18T10:50:38.837Z,48.88
2023-02-18T10:53:14.747Z,49.21
2023-02-18T10:55:44.940Z,48.90
2023-02-18T10:58:33.858Z,49.31
2023-02-18T11:01:05.497Z,49.26
2023-02-18T11:03:45.842Z,49.17
2023-02-18T11:06:21.702Z,49.51
2023-02-18T11:08:51.017Z,49.30
2023-02-18T11:11:24.202Z,49.86
2023-02-18T11:13:57.050Z,49.54
2023-02-18T11:16:25.205Z,50.25
2023-02-18T11:18:53.049Z,49.90
2023-02-18T11:21:31.135Z,50.36
2023-02-18T11:24:06.936Z,50.00
2023-02-18T11:26:37.291Z,49.82
2023-02-18T11:29:08.911Z,50.28
2023-02-18T11:31:45.288Z,50.54
2023-02-18T11:34:18.276Z,50.06
2023-02-18T11:36:46.162Z,50.60
2023-02-18T11:39:21.541Z,50.61
2023-02-18T11:41:55.901Z,49.97
2023-02-18T11:44:29.886Z,50.74
2023-02-18T11:47:00.856Z,50.33
2023-02-18T11:49:30.216Z,50.01
2023-02-18T11:52:07.516Z,50.67
2023-02-18T11:54:36.149Z,50.44
2023-02-18T11:57:06.670Z,50.62
2023-02-18T11:59:38.487Z,50.75
2023-02-18T12:02:25.429Z,51.51
2023-02-18T12:04:59.653Z,50.67
2023-02-18T12:07:32.612Z,50.76
2023-02-18T12:10:01.727Z,51.76
2023-02-18T12:12:32.173Z,50.69
2023-02-18T12:15:02.099Z,50.85
2023-02-18T12:17:51.897Z,51.93
2023-02-18T12:20:37.414Z,52.01
2023-02-18T12:23:12.955Z,52.02
2023-02-18T12:25:48.832Z,51.27
2023-02-18T12:28:35.533Z,52.23
2023-02-18T12:31:30.609Z,52.24
2023-02-18T12:34:18.984Z,51.84
2023-02-18T12:36:59.416Z,52.11
2023-02-18T12:39:41.572Z,52.51
2023-02-18T12:42:30.572Z,52.69
2023-02-18T12:45:14.289Z,52.16
2023-02-18T12:48:15.468Z,52.49
2023-02-18T12:50:56.634Z,51.98
2023-02-18T12:53:50.189Z,52.07
2023-02-18T12:56:41.809Z,52.07
2023-02-18T12:59:20.936Z,52.10
2023-02-18T13:02:00.958Z,51.97
2023-02-18T13:04:49.002Z,52.24
2023-02-18T13:07:30.901Z,52.48
2023-02-18T13:10:20.878Z,52.39
2023-02-18T13:12:58.768Z,52.29
2023-02-18T13:15:35.946Z,52.33
2023-02-18T13:18:09.998Z,52.03
2023-02-18T13:20:41.777Z,51.90
2023-02-18T13:23:17.510Z,52.39
2023-02-18T13:25:46.004Z,52.14
2023-02-18T13:28:21.986Z,52.25
2023-02-18T13:30:59.194Z,52.38
2023-02-18T13:33:36.845Z,52.55
2023-02-18T13:36:12.479Z,52.16
2023-02-18T13:38:57.723Z,52.76
2023-02-18T13:41:28.098Z,52.47
2023-02-18T13:43:55.960Z,52.21
2023-02-18T13:46:24.792Z,51.76
2023-02-18T13:48:55.010Z,52.19
2023-02-18T13:51:34.205Z,52.89
2023-02-18T13:54:06.323Z,52.40
2023-02-18T13:56:36.658Z,52.23
2023-02-18T13:59:10.383Z,52.63
2023-02-18T14:01:41.844Z,52.55
2023-02-18T14:04:48.568Z,52.87
2023-02-18T14:07:46.295Z,52.62
2023-02-18T14:10:34.149Z,52.81
2023-02-18T14:13:18.776Z,52.69
2023-02-18T14:15:56.336Z,52.70
2023-02-18T14:18:27.427Z,52.70
2023-02-18T14:21:06.573Z,52.88
2023-02-18T14:23:45.106Z,52.77
2023-02-18T14:26:25.120Z,53.18
2023-02-18T14:28:59.778Z,52.69
2023-02-18T14:31:37.244Z,53.00
2023-02-18T14:34:28.448Z,52.95
2023-02-18T14:37:11.833Z,53.28
2023-02-18T14:39:53.716Z,52.93
2023-02-18T14:42:30.487Z,53.04
2023-02-18T14:45:12.581Z,53.01
2023-02-18T14:47:55.845Z,53.29
2023-02-18T14:50:24.628Z,52.76
2023-02-18T14:52:57.996Z,52.57
2023-02-18T14:55:29.578Z,52.94
2023-02-18T14:58:02.453Z,52.94
2023-02-18T15:00:32.359Z,53.59
2023-02-18T15:03:02.998Z,52.69
2023-02-18T15:05:33.467Z,52.96
2023-02-18T15:08:02.964Z,52.36
2023-02-18T15:10:40.557Z,53.18
2023-02-18T15:13:14.321Z,52.40
2023-02-18T15:15:44.506Z,52.65
2023-02-18T15:18:21.741Z,53.22
2023-02-18T15:20:50.419Z,52.88
2023-02-18T15:23:18.888Z,52.44
2023-02-18T15:25:52.069Z,53.18
2023-02-18T15:28:23.598Z,53.16
2023-02-18T15:30:51.810Z,52.76
2023-02-18T15:33:23.577Z,52.70
2023-02-18T15:35:51.380Z,52.58
2023-02-18T15:38:21.212Z,53.03
2023-02-18T15:40:53.399Z,53.25
2023-02-18T15:43:23.379Z,52.56
2023-02-18T15:45:53.522Z,52.53
2023-02-18T15:48:33.138Z,53.42
2023-02-18T15:51:16.228Z,52.91
2023-02-18T15:53:48.998Z,53.26
2023-02-18T15:56:25.258Z,53.20
2023-02-18T15:59:08.356Z,53.37
2023-02-18T16:01:36.555Z,53.67
2023-02-18T16:04:07.373Z,53.10
2023-02-18T16:06:39.089Z,52.99
2023-02-18T16:09:16.928Z,53.54
2023-02-18T16:11:48.770Z,53.34
2023-02-18T16:14:27.603Z,53.01
2023-02-18T16:17:09.836Z,53.23
2023-02-18T16:20:02.895Z,53.15
2023-02-18T16:22:36.181Z,53.09
2023-02-18T16:25:14.977Z,52.85
2023-02-18T16:27:51.977Z,53.09
2023-02-18T16:30:23.069Z,53.29
2023-02-18T16:32:51.942Z,52.63
2023-02-18T16:35:20.559Z,53.24
2023-02-18T16:37:50.204Z,52.86
2023-02-18T16:40:30.597Z,53.01
2023-02-18T16:43:01.853Z,52.87
2023-02-18T16:45:35.829Z,53.50
2023-02-18T16:48:06.002Z,52.81
2023-02-18T16:50:35.283Z,53.20
2023-02-18T16:53:03.069Z,53.25
2023-02-18T16:55:32.030Z,52.94
2023-02-18T16:58:01.364Z,52.85
2023-02-18T17:00:29.238Z,52.77
2023-02-18T17:03:00.955Z,52.76
2023-02-18T17:05:30.590Z,53.04
2023-02-18T17:08:06.031Z,52.86
2023-02-18T17:10:36.000Z,52.96
2023-02-18T17:13:05.144Z,52.62
2023-02-18T17:15:35.857Z,53.15
2023-02-18T17:18:04.790Z,52.66
2023-02-18T17:20:33.992Z,52.48
2023-02-18T17:23:01.869Z,52.69
2023-02-18T17:25:34.311Z,52.97
2023-02-18T17:28:02.468Z,52.83
2023-02-18T17:30:33.498Z,52.63
2023-02-18T17:33:03.339Z,52.73
2023-02-18T17:35:31.929Z,52.95
2023-02-18T17:38:00.007Z,52.61
2023-02-18T17:40:29.315Z,52.85
2023-02-18T17:42:57.854Z,52.55
2023-02-18T17:45:29.808Z,52.89
2023-02-18T17:48:00.089Z,52.83
2023-02-18T17:50:29.823Z,52.52
2023-02-18T17:52:58.054Z,52.53
2023-02-18T17:55:28.035Z,52.61
2023-02-18T17:57:55.892Z,52.80
2023-02-18T18:00:25.859Z,52.68
2023-02-18T18:02:53.866Z,52.77
2023-02-18T18:05:25.882Z,53.22
2023-02-18T18:07:54.135Z,53.12
2023-02-18T18:10:25.323Z,53.25
2023-02-18T18:12:53.176Z,53.09
2023-02-18T18:15:27.448Z,53.39
2023-02-18T18:17:56.270Z,53.24
2023-02-18T18:20:27.599Z,53.00
2023-02-18T18:22:57.470Z,53.21
2023-02-18T18:25:27.411Z,52.91
2023-02-18T18:27:55.669Z,53.35
2023-02-18T18:30:25.879Z,53.57
2023-02-18T18:32:54.236Z,53.58
2023-02-18T18:35:27.065Z,53.35
2023-02-18T18:37:55.030Z,54.16
2023-02-18T18:40:25.373Z,53.68
2023-02-18T18:42:53.812Z,53.28
2023-02-18T18:45:24.357Z,53.71
2023-02-18T18:47:53.037Z,53.65
2023-02-18T18:50:22.033Z,53.62
2023-02-18T18:52:53.086Z,53.87
2023-02-18T18:55:25.309Z,53.88
2023-02-18T18:57:53.277Z,53.63
2023-02-18T19:00:23.062Z,53.48
2023-02-18T19:02:51.139Z,53.94
2023-02-18T19:05:25.557Z,53.90
2023-02-18T19:07:55.281Z,53.78
2023-02-18T19:10:23.926Z,53.62
2023-02-18T19:12:51.809Z,54.00
2023-02-18T19:15:22.358Z,53.42
2023-02-18T19:17:51.877Z,53.42
2023-02-18T19:20:22.807Z,53.41
2023-02-18T19:22:50.921Z,53.88
2023-02-18T19:25:21.015Z,53.83
2023-02-18T19:27:50.345Z,53.33
2023-02-18T19:30:22.741Z,53.30
2023-02-18T19:32:51.916Z,53.37
2023-02-18T19:35:20.053Z,53.78
2023-02-18T19:37:48.562Z,53.43
2023-02-18T19:40:21.376Z,53.65
2023-02-18T19:42:49.507Z,54.26
2023-02-18T19:45:18.839Z,53.73
2023-02-18T19:47:47.343Z,53.57
2023-02-18T19:50:17.039Z,53.72
2023-02-18T19:52:44.960Z,53.24
2023-02-18T19:55:12.850Z,53.38
2023-02-18T19:57:42.064Z,53.72
2023-02-18T20:00:12.656Z,53.30
2023-02-18T20:02:43.789Z,53.58
2023-02-18T20:05:13.705Z,53.18
2023-02-18T20:07:42.436Z,53.46
2023-02-18T20:10:13.230Z,53.37
2023-02-18T20:12:42.651Z,53.69
2023-02-18T20:15:10.604Z,53.49
2023-02-18T20:17:39.468Z,53.28
2023-02-18T20:20:07.958Z,53.50
2023-02-18T20:22:35.854Z,53.28
2023-02-18T20:25:03.950Z,53.69
2023-02-18T20:27:32.997Z,53.64
2023-02-18T20:30:02.221Z,53.25
2023-02-18T20:32:30.080Z,53.58
2023-02-18T20:34:57.973Z,53.26
2023-02-18T20:37:25.811Z,53.83
2023-02-18T20:39:53.932Z,53.72
2023-02-18T20:42:21.788Z,53.40
2023-02-18T20:44:51.528Z,53.82
2023-02-18T20:47:20.814Z,53.80
2023-02-18T20:49:48.588Z,53.67
2023-02-18T20:52:17.420Z,53.29
2023-02-18T20:54:45.348Z,53.28
2023-02-18T20:57:13.303Z,53.56
2023-02-18T20:59:41.239Z,53.82
2023-02-18T21:02:09.251Z,53.62
2023-02-18T21:04:38.436Z,53.71
2023-02-18T21:07:06.641Z,53.81
2023-02-18T21:09:34.517Z,53.37
2023-02-18T21:12:02.404Z,53.32
2023-02-18T21:14:30.197Z,53.22
2023-02-18T21:16:58.062Z,53.34
2023-02-18T21:19:26.061Z,53.32
2023-02-18T21:21:55.390Z,53.79
2023-02-18T21:24:23.288Z,53.97
2023-02-18T21:26:51.146Z,53.84
2023-02-18T21:29:18.995Z,53.53
2023-02-18T21:31:46.941Z,53.76
2023-02-18T21:34:16.436Z,53.50
2023-02-18T21:36:45.269Z,53.41
2023-02-18T21:39:14.409Z,53.42
2023-02-18T21:41:42.279Z,53.54
2023-02-18T21:44:10.987Z,54.01
2023-02-18T21:46:40.229Z,53.81
2023-02-18T21:49:09.601Z,53.33
2023-02-18T21:52:00.276Z,53.25
2023-02-18T21:54:31.137Z,53.53
2023-02-18T21:57:00.747Z,53.52
2023-02-18T21:59:29.884Z,53.40
2023-02-18T22:01:59.825Z,53.54
2023-02-18T22:04:28.127Z,53.82
2023-02-18T22:06:55.886Z,53.90
2023-02-18T22:09:23.925Z,53.64
2023-02-18T22:11:53.074Z,53.47
2023-02-18T22:14:20.985Z,53.78
2023-02-18T22:16:48.861Z,53.55
2023-02-18T22:19:16.767Z,53.44
2023-02-18T22:21:44.885Z,53.51
2023-02-18T22:24:14.722Z,54.10
2023-02-18T22:26:43.889Z,54.11
2023-02-18T22:29:14.655Z,53.77
2023-02-18T22:31:42.950Z,53.51
2023-02-18T22:34:11.293Z,53.87
2023-02-18T22:36:39.217Z,53.78
2023-02-18T22:39:08.473Z,53.71
2023-02-18T22:41:36.648Z,53.99
2023-02-18T22:44:06.343Z,53.65
2023-02-18T22:46:37.572Z,54.17
2023-02-18T22:49:07.321Z,54.12
2023-02-18T22:51:38.428Z,53.62
2023-02-18T22:54:07.576Z,53.40
2023-02-18T22:56:35.402Z,53.96
2023-02-18T22:59:03.360Z,53.48
2023-02-18T23:01:32.900Z,54.08
2023-02-18T23:04:06.917Z,53.72
2023-02-18T23:06:34.918Z,53.57
2023-02-18T23:09:03.052Z,54.02
2023-02-18T23:11:30.885Z,53.90
2023-02-18T23:14:16.128Z,53.86
2023-02-18T23:17:01.644Z,54.08
2023-02-18T23:19:32.122Z,53.98
2023-02-18T23:22:00.167Z,53.74
2023-02-18T23:24:28.139Z,53.65
2023-02-18T23:26:55.977Z,54.08
2023-02-18T23:29:23.901Z,53.88
2023-02-18T23:31:51.806Z,54.07
2023-02-18T23:34:19.598Z,53.65
2023-02-18T23:36:49.083Z,53.67
2023-02-18T23:39:19.401Z,53.58
2023-02-18T23:41:47.718Z,53.63
2023-02-18T23:44:17.372Z,53.78
2023-02-18T23:46:45.632Z,53.45
2023-02-18T23:49:15.953Z,53.65
2023-02-18T23:51:44.057Z,54.08
2023-02-18T23:54:13.285Z,53.66
2023-02-18T23:56:41.407Z,53.80
2023-02-18T23:59:09.291Z,54.09
